Sedco Express — ELXM3 — position and weather

sailwx.info

Track history (hours):
 
Tides and Currents Weather Stations Pressure Air Temp Water Temp Dewpoint Dewpoint Depression Visibility Wind Speed Wind Dir Waves Ship Positions

Sedco Express

Last reported at 2018-Jan-09 01:27 UTC. Time now 2018-Jun-24 10:55 UTC.
Position N 38°50' E 026°42'.
Warning: this ship's position is months out of date.

Length 106 m; draft 15.4 m.

Type: Other ship. MMSI: 636011196.

Date/timePositionNaut miles runAvg speedWind from/ knotsBaromVisibWave heightAir tempDewpointWater temp
2018-Jan-09 01:27N 38°50' E 026°42'46 2.7
2018-Jan-08 08:32N 38°38' E 025°45'73 4.6
2018-Jan-07 16:49N 37°26' E 025°53'1 4.7
2018-Jan-07 16:30N 37°25' E 025°54'2 4.8
2018-Jan-07 16:00N 37°23' E 025°56'3 5.2
2018-Jan-07 15:30N 37°22' E 025°59'3 5.6
2018-Jan-07 15:00N 37°21' E 026°02'3 5.3
2018-Jan-07 14:30N 37°20' E 026°05'2 4.5
2018-Jan-07 14:00N 37°19' E 026°08'2 4.4
2018-Jan-07 13:30N 37°18' E 026°10'2 4.2
2018-Jan-07 13:00N 37°17' E 026°13'2 4.1
2018-Jan-07 12:30N 37°15' E 026°15'2 4.4
2018-Jan-07 12:00N 37°14' E 026°17'2 4.5
2018-Jan-07 11:30N 37°13' E 026°19'2 4.6
2018-Jan-07 11:00N 37°12' E 026°22'2 4.7
2018-Jan-07 10:30N 37°10' E 026°24'3 5.4
2018-Jan-07 10:00N 37°09' E 026°27'3 5.5
2018-Jan-07 09:30N 37°08' E 026°30'3 5.6
2018-Jan-07 09:00N 37°07' E 026°33'3 5.7
2018-Jan-07 08:30N 37°05' E 026°36'3 5.4
2018-Jan-07 08:00N 37°03' E 026°38'3 5.5
2018-Jan-07 07:30N 36°60' E 026°39'3 5.5
2018-Jan-07 06:57N 36°57' E 026°40'3 6.0
2018-Jan-07 06:29N 36°54' E 026°41'3 6.3
2018-Jan-07 06:00N 36°52' E 026°42'3 6.3
2018-Jan-07 05:30N 36°49' E 026°44'15 6.3
2018-Jan-07 03:08N 36°34' E 026°48'1 6.5
2018-Jan-07 03:00N 36°33' E 026°48'3 6.4
2018-Jan-07 02:29N 36°30' E 026°49'4 6.7
2018-Jan-07 01:56N 36°26' E 026°50'5 6.9
2018-Jan-07 01:14N 36°22' E 026°52'5 6.8
2018-Jan-07 00:26N 36°17' E 026°54'5 6.6
2018-Jan-06 23:41N 36°12' E 026°55'16 6.5
2018-Jan-06 21:17N 35°56' E 026°57'3 6.7
2018-Jan-06 20:54N 35°53' E 026°58'7 6.5
2018-Jan-06 19:53N 35°48' E 026°54'3 6.6
2018-Jan-06 19:26N 35°45' E 026°53'4 6.5
2018-Jan-06 18:52N 35°42' E 026°51'2 6.2
2018-Jan-06 18:30N 35°40' E 026°49'3 6.2
2018-Jan-06 18:00N 35°37' E 026°48'5 6.4
2018-Jan-06 17:13N 35°32' E 026°45'11 6.6
2018-Jan-06 15:35N 35°23' E 026°38'2 6.6
2018-Jan-06 15:19N 35°21' E 026°37'3 6.6
2018-Jan-06 14:53N 35°19' E 026°36'3 6.5
2018-Jan-06 14:29N 35°17' E 026°34'44 6.2
2018-Jan-06 07:25N 34°47' E 025°56'3 6.8
2018-Jan-06 07:00N 34°46' E 025°52'26 6.6
2018-Jan-06 03:07N 34°44' E 025°21'1 7.2
2018-Jan-06 02:56N 34°44' E 025°19'6 7.1
2018-Jan-06 02:07N 34°44' E 025°12'2 7.3
2018-Jan-06 01:51N 34°44' E 025°10'3 7.5
2018-Jan-06 01:30N 34°44' E 025°07'5 7.5
2018-Jan-06 00:50N 34°44' E 025°01'3 7.4
2018-Jan-06 00:24N 34°44' E 024°57'  
2018-Jan-01 21:03N 36°02' E 015°55'1 4.9
2018-Jan-01 20:51N 36°02' E 015°54'2 4.8
2018-Jan-01 20:30N 36°02' E 015°52'2 4.9
2018-Jan-01 20:00N 36°02' E 015°49'2 5.0
2018-Jan-01 19:30N 36°03' E 015°46'2 4.8
2018-Jan-01 19:00N 36°03' E 015°43'2 4.9
2018-Jan-01 18:30N 36°04' E 015°40'46 5.0
2018-Jan-01 09:23N 36°13' E 014°44'4 4.6
2018-Jan-01 08:30N 36°14' E 014°39'2 4.3
2018-Jan-01 08:00N 36°14' E 014°37'2 4.3
2018-Jan-01 07:30N 36°15' E 014°34'2 4.4
2018-Jan-01 07:00N 36°15' E 014°31'5 4.7
2018-Jan-01 06:00N 36°16' E 014°26'2 4.7
2018-Jan-01 05:30N 36°17' E 014°23'2 4.7
2018-Jan-01 05:00N 36°17' E 014°20'5 4.7
2018-Jan-01 04:00N 36°19' E 014°15'2 4.8
2018-Jan-01 03:30N 36°20' E 014°12'2 4.9
2018-Jan-01 03:00N 36°21' E 014°09'2 5.0
2018-Jan-01 02:30N 36°21' E 014°06'3 5.1
2018-Jan-01 01:59N 36°22' E 014°03'3 5.1
2018-Jan-01 01:30N 36°23' E 014°00'5 5.0
2018-Jan-01 00:30N 36°25' E 013°54'  
Track history (hours):
 
Tides and Currents Weather Stations Pressure Air Temp Water Temp Dewpoint Dewpoint Depression Visibility Wind Speed Wind Dir Waves Ship Positions

Sedco Express

Last reported at 2018-Jan-09 01:27 UTC. Time now 2018-Jun-24 10:55 UTC.
Position N 38°50' E 026°42'.
Warning: this ship's position is months out of date.

Length 106 m; draft 15.4 m.

Type: Other ship. MMSI: 636011196.

Date/timePositionNaut miles runAvg speedWind from/ knotsBaromVisibWave heightAir tempDewpointWater temp
2018-Jan-09 01:27N 38°50' E 026°42'46 2.7
2018-Jan-08 08:32N 38°38' E 025°45'73 4.6
2018-Jan-07 16:49N 37°26' E 025°53'1 4.7
2018-Jan-07 16:30N 37°25' E 025°54'2 4.8
2018-Jan-07 16:00N 37°23' E 025°56'3 5.2
2018-Jan-07 15:30N 37°22' E 025°59'3 5.6
2018-Jan-07 15:00N 37°21' E 026°02'3 5.3
2018-Jan-07 14:30N 37°20' E 026°05'2 4.5
2018-Jan-07 14:00N 37°19' E 026°08'2 4.4
2018-Jan-07 13:30N 37°18' E 026°10'2 4.2
2018-Jan-07 13:00N 37°17' E 026°13'2 4.1
2018-Jan-07 12:30N 37°15' E 026°15'2 4.4
2018-Jan-07 12:00N 37°14' E 026°17'2 4.5
2018-Jan-07 11:30N 37°13' E 026°19'2 4.6
2018-Jan-07 11:00N 37°12' E 026°22'2 4.7
2018-Jan-07 10:30N 37°10' E 026°24'3 5.4
2018-Jan-07 10:00N 37°09' E 026°27'3 5.5
2018-Jan-07 09:30N 37°08' E 026°30'3 5.6
2018-Jan-07 09:00N 37°07' E 026°33'3 5.7
2018-Jan-07 08:30N 37°05' E 026°36'3 5.4
2018-Jan-07 08:00N 37°03' E 026°38'3 5.5
2018-Jan-07 07:30N 36°60' E 026°39'3 5.5
2018-Jan-07 06:57N 36°57' E 026°40'3 6.0
2018-Jan-07 06:29N 36°54' E 026°41'3 6.3
2018-Jan-07 06:00N 36°52' E 026°42'3 6.3
2018-Jan-07 05:30N 36°49' E 026°44'15 6.3
2018-Jan-07 03:08N 36°34' E 026°48'1 6.5
2018-Jan-07 03:00N 36°33' E 026°48'3 6.4
2018-Jan-07 02:29N 36°30' E 026°49'4 6.7
2018-Jan-07 01:56N 36°26' E 026°50'5 6.9
2018-Jan-07 01:14N 36°22' E 026°52'5 6.8
2018-Jan-07 00:26N 36°17' E 026°54'5 6.6
2018-Jan-06 23:41N 36°12' E 026°55'16 6.5
2018-Jan-06 21:17N 35°56' E 026°57'3 6.7
2018-Jan-06 20:54N 35°53' E 026°58'7 6.5
2018-Jan-06 19:53N 35°48' E 026°54'3 6.6
2018-Jan-06 19:26N 35°45' E 026°53'4 6.5
2018-Jan-06 18:52N 35°42' E 026°51'2 6.2
2018-Jan-06 18:30N 35°40' E 026°49'3 6.2
2018-Jan-06 18:00N 35°37' E 026°48'5 6.4
2018-Jan-06 17:13N 35°32' E 026°45'11 6.6
2018-Jan-06 15:35N 35°23' E 026°38'2 6.6
2018-Jan-06 15:19N 35°21' E 026°37'3 6.6
2018-Jan-06 14:53N 35°19' E 026°36'3 6.5
2018-Jan-06 14:29N 35°17' E 026°34'44 6.2
2018-Jan-06 07:25N 34°47' E 025°56'3 6.8
2018-Jan-06 07:00N 34°46' E 025°52'26 6.6
2018-Jan-06 03:07N 34°44' E 025°21'1 7.2
2018-Jan-06 02:56N 34°44' E 025°19'6 7.1
2018-Jan-06 02:07N 34°44' E 025°12'2 7.3
2018-Jan-06 01:51N 34°44' E 025°10'3 7.5
2018-Jan-06 01:30N 34°44' E 025°07'5 7.5
2018-Jan-06 00:50N 34°44' E 025°01'3 7.4
2018-Jan-06 00:24N 34°44' E 024°57'  
2018-Jan-01 21:03N 36°02' E 015°55'1 4.9
2018-Jan-01 20:51N 36°02' E 015°54'2 4.8
2018-Jan-01 20:30N 36°02' E 015°52'2 4.9
2018-Jan-01 20:00N 36°02' E 015°49'2 5.0
2018-Jan-01 19:30N 36°03' E 015°46'2 4.8
2018-Jan-01 19:00N 36°03' E 015°43'2 4.9
2018-Jan-01 18:30N 36°04' E 015°40'46 5.0
2018-Jan-01 09:23N 36°13' E 014°44'4 4.6
2018-Jan-01 08:30N 36°14' E 014°39'2 4.3
2018-Jan-01 08:00N 36°14' E 014°37'2 4.3
2018-Jan-01 07:30N 36°15' E 014°34'2 4.4
2018-Jan-01 07:00N 36°15' E 014°31'5 4.7
2018-Jan-01 06:00N 36°16' E 014°26'2 4.7
2018-Jan-01 05:30N 36°17' E 014°23'2 4.7
2018-Jan-01 05:00N 36°17' E 014°20'5 4.7
2018-Jan-01 04:00N 36°19' E 014°15'2 4.8
2018-Jan-01 03:30N 36°20' E 014°12'2 4.9
2018-Jan-01 03:00N 36°21' E 014°09'2 5.0
2018-Jan-01 02:30N 36°21' E 014°06'3 5.1
2018-Jan-01 01:59N 36°22' E 014°03'3 5.1
2018-Jan-01 01:30N 36°23' E 014°00'5 5.0
2018-Jan-01 00:30N 36°25' E 013°54'  

Dump ship's entire track history